Carmel Valley, CA

7:01 PM PDT on April 01, 2015 (GMT -0700)
Monterey Peninsula | | Change Station
CLOSE
Current Station
Airport
Location: Monterey,
Elevation: 253 ft
Nearby Weather Stations

Elev 253 ft 36.59 °N, 121.84 °W | Updated 7 minutes ago

Clear
Clear
54 °F
Feels Like 54 °F
N
17
Wind Variable Wind from West
Gusts 28 mph

Today
High -- | Low -- °F
--% Chance of Precip.
Yesterday
High -- | Low -- °F
Precip. -- in
6:52 AM 7:28 PM
Waxing Gibbous, 95% visible
Pressure 30.15 in
Visibility 10.0 miles
Clouds Clear
Dew Point 44 °F
Humidity 69%
Rainfall 0.00 in
Snow Depth Not available.
UV 0 out of 12
Pollen 9.30 out of 12
Air Quality Not available.
Flu Activity Not available.
METAR KMRY 020154Z 26015G24KT 10SM CLR 12/07 A3011 RMK AO2 PK WND 26026/0116 SLP209 T01220067

More Conditions Fewer Conditions

Pressure 30.15 in
Visibility 10.0 miles
Clouds Clear
Dew Point 44 °F
Humidity 69%
Rainfall 0.00 in
Snow Depth Not available.
UV 0 out of 12
Pollen 9.30 out of 12
Air Quality Not available.
Flu Activity Not available.
METAR KMRY 020154Z 26015G24KT 10SM CLR 12/07 A3011 RMK AO2 PK WND 26026/0116 SLP209 T01220067

More Conditions Fewer Conditions

10-Day Weather Forecast

Almanac

Astronomy

Apr. 01, 2015 Rise Set
Actual Time
Civil Twilight
Nautical Twilight
Astronomical Twilight
Moon
Length of Visible Light
Length of Day
Tomorrow will be .
, % of the Moon is Illuminated

Today's Extremes

State Highs State Lows

Community

WunderPhotos

Upload Photos

1,810,153 photos uploaded!

WunderBlogs® & News

Nearby

Air Quality

  Air Quality AQ Index Pollutant
Not available.

Snow Depth

Station Depth Elevation

Earthquake Activity

City Distance Mag. Time & Date
Minimum magnitude displayed is 2.5.

Coastal Water Temperatures

Place Temperature

Stations

Nearby Weather Stations

Station Location Temp. Windchill Dew Point Humidity Wind Precip. Elev Updated Type